Time;durP1;ratioP1;P1;durP2;ratioP2;P2;SDS_P1;SDS_P2;PMS_P1;PMS_P2;Temp;Humidity;BMP_temperature;BMP_pressure;BME280_temperature;BME280_humidity;BME280_pressure;Samples;Min_cycle;Max_cycle;Signal;HPM_P1;HPM_P2
2022/07/26 00:00:55;;;;;;;23.88;3.88;;;20.20;99.90;;;;;;5093976;28;20475;-76
2022/07/26 00:03:21;;;;;;;19.42;3.83;;;20.30;99.90;;;;;;5094374;28;20034;-76
2022/07/26 00:05:46;;;;;;;18.30;3.97;;;20.30;99.90;;;;;;5093282;28;20047;-76
2022/07/26 00:08:12;;;;;;;28.90;4.07;;;20.30;99.90;;;;;;5093821;28;20042;-76
2022/07/26 00:10:45;;;;;;;20.08;4.03;;;20.20;99.90;;;;;;5079285;28;20111;-75
2022/07/26 00:13:11;;;;;;;21.98;4.38;;;20.30;99.90;;;;;;5073619;28;20380;-75
2022/07/26 00:15:38;;;;;;;16.23;3.97;;;20.30;99.90;;;;;;5086952;28;20024;-74
2022/07/26 00:18:04;;;;;;;27.05;5.40;;;20.30;99.90;;;;;;5093021;28;20016;-77
2022/07/26 00:20:30;;;;;;;17.13;4.53;;;20.30;99.90;;;;;;5093625;28;20024;-75
2022/07/26 00:22:56;;;;;;;15.35;3.10;;;20.20;99.90;;;;;;5075575;28;20023;-75
2022/07/26 00:25:21;;;;;;;16.52;3.67;;;20.20;99.90;;;;;;5093400;28;20086;-76
2022/07/26 00:27:47;;;;;;;12.75;3.60;;;20.00;99.90;;;;;;5093553;28;20051;-77
2022/07/26 00:30:13;;;;;;;9.85;2.30;;;19.90;99.90;;;;;;5094064;28;20026;-76
2022/07/26 00:32:41;;;;;;;9.18;3.22;;;19.80;99.90;;;;;;5093157;28;20766;-76
2022/07/26 00:35:07;;;;;;;10.63;2.75;;;19.60;99.90;;;;;;5093683;28;20026;-76
2022/07/26 00:37:34;;;;;;;10.20;2.58;;;19.50;99.90;;;;;;5094925;28;20564;-77
2022/07/26 00:40:01;;;;;;;15.15;2.92;;;19.50;99.90;;;;;;5082112;28;20032;-78
2022/07/26 00:42:27;;;;;;;11.05;2.80;;;19.40;99.90;;;;;;5079098;28;20063;-78
2022/07/26 00:44:53;;;;;;;7.28;2.25;;;19.40;99.90;;;;;;5073819;28;20029;-77
2022/07/26 00:47:19;;;;;;;9.18;3.00;;;19.40;99.90;;;;;;5080890;28;20113;-78
2022/07/26 00:49:48;;;;;;;6.93;2.78;;;19.20;99.90;;;;;;5088816;28;20024;-77
2022/07/26 00:52:14;;;;;;;12.82;2.58;;;19.20;99.90;;;;;;5095337;28;20127;-77
2022/07/26 00:54:45;;;;;;;6.93;2.40;;;19.10;99.90;;;;;;5098940;28;20467;-76
2022/07/26 00:57:12;;;;;;;11.98;2.85;;;19.10;99.90;;;;;;5110772;28;20010;-76
2022/07/26 00:59:38;;;;;;;13.27;3.67;;;19.00;99.90;;;;;;5109842;28;20020;-78
2022/07/26 01:02:05;;;;;;;9.32;3.10;;;19.00;99.90;;;;;;5096702;28;20457;-78
2022/07/26 01:04:30;;;;;;;6.47;3.20;;;19.00;99.90;;;;;;5113738;28;20135;-77
2022/07/26 01:06:56;;;;;;;11.25;3.22;;;19.00;99.90;;;;;;5110054;28;20012;-76
2022/07/26 01:09:22;;;;;;;11.40;2.55;;;19.10;99.90;;;;;;5111356;28;20024;-78
2022/07/26 01:11:48;;;;;;;14.68;3.83;;;19.10;99.90;;;;;;5110816;28;20062;-78
2022/07/26 01:14:14;;;;;;;10.32;2.80;;;19.00;99.90;;;;;;5109372;28;20045;-78
2022/07/26 01:16:39;;;;;;;13.23;2.85;;;19.10;99.90;;;;;;5110246;28;20043;-77
2022/07/26 01:19:05;;;;;;;7.47;3.08;;;19.10;99.90;;;;;;5094613;28;20023;-77
2022/07/26 01:21:32;;;;;;;8.50;2.80;;;19.10;99.90;;;;;;5098625;28;20021;-77
2022/07/26 01:23:58;;;;;;;7.03;2.40;;;19.10;99.90;;;;;;5097089;28;20028;-77
2022/07/26 01:26:24;;;;;;;4.90;2.25;;;19.00;99.90;;;;;;5083276;28;20357;-77
2022/07/26 01:28:50;;;;;;;8.55;2.38;;;19.10;99.90;;;;;;5095715;28;20475;-79
2022/07/26 01:31:16;;;;;;;8.77;2.35;;;19.00;99.90;;;;;;5096394;28;20496;-78
2022/07/26 01:33:42;;;;;;;7.90;2.67;;;18.90;99.90;;;;;;5096231;28;20016;-78
2022/07/26 01:36:08;;;;;;;5.07;1.77;;;18.80;99.90;;;;;;5095682;28;20805;-78
2022/07/26 01:38:34;;;;;;;3.00;2.05;;;18.70;99.90;;;;;;5096833;28;20024;-77
2022/07/26 01:40:59;;;;;;;7.50;2.25;;;18.60;99.90;;;;;;5095800;28;20040;-78
2022/07/26 01:43:25;;;;;;;9.48;2.45;;;18.50;99.90;;;;;;5088682;28;20028;-78
2022/07/26 01:45:51;;;;;;;4.03;2.05;;;18.50;99.90;;;;;;5077761;28;20039;-78
2022/07/26 01:48:16;;;;;;;7.45;2.50;;;18.50;99.90;;;;;;5099331;28;20031;-77
2022/07/26 01:50:42;;;;;;;4.13;2.60;;;18.50;99.90;;;;;;5095957;28;20110;-77
2022/07/26 01:53:10;;;;;;;6.82;2.45;;;18.30;99.90;;;;;;5081614;28;20044;-77
2022/07/26 01:55:35;;;;;;;6.63;2.40;;;18.40;99.90;;;;;;5096456;28;20027;-78
2022/07/26 01:58:05;;;;;;;6.30;2.38;;;18.40;99.90;;;;;;5096789;28;20020;-78
2022/07/26 02:00:31;;;;;;;11.77;3.17;;;18.30;99.90;;;;;;5096556;28;20043;-77
2022/07/26 02:02:57;;;;;;;7.10;2.42;;;18.30;99.90;;;;;;5095995;28;20024;-79
2022/07/26 02:05:24;;;;;;;5.72;2.03;;;18.30;99.90;;;;;;5099138;28;20111;-78
2022/07/26 02:07:49;;;;;;;7.95;2.25;;;18.20;99.90;;;;;;5098857;28;20062;-77
2022/07/26 02:10:16;;;;;;;8.75;2.65;;;18.20;99.90;;;;;;5098158;28;20028;-77
2022/07/26 02:12:42;;;;;;;9.45;1.77;;;18.10;99.90;;;;;;5099387;28;20050;-78
2022/07/26 02:15:09;;;;;;;6.00;2.22;;;18.10;99.90;;;;;;5098740;28;20360;-79
2022/07/26 02:17:34;;;;;;;9.70;2.58;;;18.10;99.90;;;;;;5098109;28;20032;-77
2022/07/26 02:20:00;;;;;;;10.55;3.00;;;18.00;99.90;;;;;;5097377;28;20031;-77
2022/07/26 02:22:26;;;;;;;9.80;2.20;;;18.00;99.90;;;;;;5097244;28;20020;-75
2022/07/26 02:24:51;;;;;;;7.72;2.78;;;17.90;99.90;;;;;;5096453;28;20032;-79
2022/07/26 02:27:17;;;;;;;6.90;2.55;;;17.90;99.90;;;;;;5096874;28;20030;-79
2022/07/26 02:29:43;;;;;;;7.80;2.42;;;17.90;99.90;;;;;;5097375;28;20020;-79
2022/07/26 02:32:10;;;;;;;6.82;2.83;;;17.80;99.90;;;;;;5096687;28;20021;-78
2022/07/26 02:34:35;;;;;;;4.53;2.15;;;17.80;99.90;;;;;;5098216;28;20396;-78
2022/07/26 02:37:01;;;;;;;6.78;3.13;;;17.80;99.90;;;;;;5098005;28;20024;-78
2022/07/26 02:39:27;;;;;;;3.88;2.22;;;17.70;99.90;;;;;;5098077;28;20094;-79
2022/07/26 02:42:00;;;;;;;9.35;2.70;;;17.60;99.90;;;;;;5097577;28;20073;-78
2022/07/26 02:44:27;;;;;;;5.55;2.25;;;17.50;99.90;;;;;;5097187;28;20042;-78
2022/07/26 02:46:52;;;;;;;5.93;2.80;;;17.50;99.90;;;;;;5079307;28;20020;-78
2022/07/26 02:49:19;;;;;;;6.38;2.58;;;17.40;99.90;;;;;;5097965;28;20077;-77
2022/07/26 02:51:45;;;;;;;6.32;2.47;;;17.40;99.90;;;;;;5094342;28;20021;-78
2022/07/26 02:54:11;;;;;;;4.97;2.50;;;17.40;99.90;;;;;;5077967;28;20040;-77
2022/07/26 02:56:37;;;;;;;4.95;2.63;;;17.40;99.90;;;;;;5095500;28;20501;-77
2022/07/26 02:59:03;;;;;;;9.90;2.70;;;17.40;99.90;;;;;;5097935;28;20027;-77
2022/07/26 03:01:28;;;;;;;3.67;2.70;;;17.30;99.90;;;;;;5098255;28;20070;-79
2022/07/26 03:03:55;;;;;;;4.45;2.05;;;17.40;99.90;;;;;;5101816;28;20020;-79
2022/07/26 03:06:21;;;;;;;8.00;3.33;;;17.40;99.90;;;;;;5099720;28;20467;-79
2022/07/26 03:08:47;;;;;;;9.45;3.25;;;17.30;99.90;;;;;;5098770;28;20027;-79
2022/07/26 03:11:15;;;;;;;5.28;3.00;;;17.20;99.90;;;;;;5097983;28;20059;-79
2022/07/26 03:13:40;;;;;;;5.45;3.13;;;17.10;99.90;;;;;;5100841;28;20078;-78
2022/07/26 03:16:06;;;;;;;9.48;3.10;;;17.10;99.90;;;;;;5094094;28;20020;-78
2022/07/26 03:18:32;;;;;;;4.20;2.90;;;17.00;99.90;;;;;;5096131;28;20387;-77
2022/07/26 03:20:58;;;;;;;6.05;3.78;;;17.00;99.90;;;;;;5099726;28;20024;-78
2022/07/26 03:23:24;;;;;;;6.40;3.20;;;16.90;99.90;;;;;;5096519;28;20024;-79
2022/07/26 03:25:49;;;;;;;8.52;4.00;;;17.00;99.90;;;;;;5095880;28;20032;-77
2022/07/26 03:28:15;;;;;;;6.70;3.75;;;17.00;99.90;;;;;;5097071;28;20028;-78
2022/07/26 03:30:40;;;;;;;7.07;2.60;;;17.10;99.90;;;;;;5101439;28;20107;-78
2022/07/26 03:33:06;;;;;;;5.05;2.85;;;17.00;99.90;;;;;;5090171;28;20080;-78
2022/07/26 03:35:32;;;;;;;3.95;2.90;;;17.00;99.90;;;;;;5091726;28;20380;-79
2022/07/26 03:37:58;;;;;;;7.03;3.25;;;17.00;99.90;;;;;;5099455;28;20044;-78
2022/07/26 03:40:24;;;;;;;3.88;3.30;;;16.90;99.90;;;;;;5096432;28;20038;-78
2022/07/26 03:42:50;;;;;;;6.28;3.55;;;16.90;99.90;;;;;;5095397;28;20431;-78
2022/07/26 03:45:16;;;;;;;6.13;3.45;;;16.90;99.90;;;;;;5095019;28;20036;-78
2022/07/26 03:47:42;;;;;;;5.57;3.88;;;16.80;99.90;;;;;;5095344;28;20375;-78
2022/07/26 03:50:08;;;;;;;4.07;2.95;;;16.90;99.90;;;;;;5085015;28;20044;-78
2022/07/26 03:52:34;;;;;;;4.78;3.35;;;16.80;99.90;;;;;;5074715;28;20024;-78
2022/07/26 03:54:59;;;;;;;4.88;2.90;;;16.80;99.90;;;;;;5091158;28;20072;-78
2022/07/26 03:57:25;;;;;;;5.57;2.75;;;16.80;99.90;;;;;;5093870;28;20012;-78
2022/07/26 03:59:51;;;;;;;6.03;2.53;;;16.80;99.90;;;;;;5075809;28;20069;-79
2022/07/26 04:02:16;;;;;;;7.78;2.97;;;16.70;99.90;;;;;;5095036;28;20085;-78
2022/07/26 04:04:42;;;;;;;12.02;3.33;;;16.70;99.90;;;;;;5093764;28;20458;-78
2022/07/26 04:07:08;;;;;;;7.60;2.85;;;16.80;99.90;;;;;;5093104;28;20035;-77
2022/07/26 04:09:33;;;;;;;7.47;3.22;;;16.70;99.90;;;;;;5094215;28;20074;-78
2022/07/26 04:12:00;;;;;;;8.20;3.10;;;16.70;99.90;;;;;;5093276;28;20048;-79
2022/07/26 04:14:26;;;;;;;5.65;2.70;;;16.70;99.90;;;;;;5093993;28;20103;-79
2022/07/26 04:16:53;;;;;;;8.15;2.42;;;16.80;99.90;;;;;;5093436;28;20070;-78
2022/07/26 04:19:18;;;;;;;4.55;1.98;;;16.80;99.90;;;;;;5094388;28;20114;-80
2022/07/26 04:21:44;;;;;;;7.60;2.50;;;16.80;99.90;;;;;;5094169;28;20436;-77
2022/07/26 04:24:09;;;;;;;4.55;2.97;;;16.80;99.90;;;;;;5096233;28;20387;-77
2022/07/26 04:26:35;;;;;;;7.05;2.58;;;16.70;99.90;;;;;;5104513;28;20418;-78
2022/07/26 04:29:00;;;;;;;10.20;3.22;;;16.80;99.90;;;;;;5094566;28;20017;-77
2022/07/26 04:31:26;;;;;;;4.45;2.40;;;16.80;99.90;;;;;;5095105;28;20409;-79
2022/07/26 04:33:52;;;;;;;8.48;2.78;;;16.90;99.90;;;;;;5094178;28;20333;-78
2022/07/26 04:36:17;;;;;;;7.20;2.63;;;16.90;99.90;;;;;;5094600;28;20020;-77
2022/07/26 04:38:43;;;;;;;9.70;2.72;;;17.00;99.90;;;;;;5093732;28;20036;-77
2022/07/26 04:41:09;;;;;;;8.73;2.58;;;17.00;99.90;;;;;;5093570;28;20031;-77
2022/07/26 04:43:34;;;;;;;5.28;2.20;;;17.00;99.90;;;;;;5093446;28;20032;-78
2022/07/26 04:46:00;;;;;;;5.50;2.40;;;17.00;99.90;;;;;;5092882;28;20043;-77
2022/07/26 04:48:26;;;;;;;3.40;2.38;;;17.10;99.90;;;;;;5093967;28;20021;-77
2022/07/26 04:50:52;;;;;;;4.43;3.10;;;17.00;99.90;;;;;;5093818;28;20024;-77
2022/07/26 04:53:18;;;;;;;8.55;2.20;;;17.10;99.90;;;;;;5077711;28;20020;-79
2022/07/26 04:55:44;;;;;;;5.15;2.38;;;17.20;99.90;;;;;;5088861;28;20035;-78
2022/07/26 04:58:10;;;;;;;4.00;2.50;;;17.20;99.90;;;;;;5077549;28;20434;-78
2022/07/26 05:00:36;;;;;;;5.00;2.33;;;17.30;99.90;;;;;;5071121;28;20025;-79
2022/07/26 05:03:03;;;;;;;5.25;1.88;;;17.40;99.90;;;;;;5071506;28;20052;-78
2022/07/26 05:05:31;;;;;;;4.20;1.80;;;17.50;99.90;;;;;;5073958;28;20145;-78
2022/07/26 05:08:01;;;;;;;4.80;2.03;;;17.50;99.90;;;;;;5071152;28;21249;-78
2022/07/26 05:10:34;;;;;;;4.60;1.63;;;17.50;99.90;;;;;;5072748;28;20028;-78
2022/07/26 05:13:02;;;;;;;5.40;2.50;;;17.50;99.90;;;;;;5073041;28;20528;-78
2022/07/26 05:15:28;;;;;;;2.58;1.98;;;17.50;99.90;;;;;;5072745;28;20027;-78
2022/07/26 05:17:56;;;;;;;7.95;1.95;;;17.40;99.90;;;;;;5074806;28;20043;-78
2022/07/26 05:20:22;;;;;;;8.52;2.85;;;17.50;99.90;;;;;;5071748;28;20044;-77
2022/07/26 05:22:47;;;;;;;4.65;2.00;;;17.50;99.90;;;;;;5071081;28;20054;-78
2022/07/26 05:25:13;;;;;;;5.30;2.15;;;17.60;99.90;;;;;;5071482;28;20024;-77
2022/07/26 05:27:40;;;;;;;5.03;2.38;;;17.60;99.90;;;;;;5073533;28;20150;-77
2022/07/26 05:30:07;;;;;;;5.00;2.90;;;17.70;99.90;;;;;;5087813;28;20468;-76
2022/07/26 05:32:32;;;;;;;5.53;2.72;;;17.80;99.90;;;;;;5086121;28;20021;-77
2022/07/26 05:34:58;;;;;;;7.05;2.78;;;17.90;99.90;;;;;;5088663;28;20077;-77
2022/07/26 05:37:24;;;;;;;4.03;2.10;;;17.90;99.90;;;;;;5081135;28;20498;-77
2022/07/26 05:39:49;;;;;;;4.30;2.67;;;18.00;99.90;;;;;;5093113;28;20039;-77
2022/07/26 05:42:15;;;;;;;5.13;2.45;;;17.90;99.90;;;;;;5090151;28;20024;-78
2022/07/26 05:44:40;;;;;;;11.80;4.07;;;18.00;99.90;;;;;;5088868;28;20044;-77
2022/07/26 05:47:09;;;;;;;9.32;4.30;;;18.00;99.90;;;;;;5087428;28;20372;-76
2022/07/26 05:49:35;;;;;;;8.38;3.33;;;18.00;99.90;;;;;;5080631;28;20031;-74
2022/07/26 05:52:01;;;;;;;4.47;1.98;;;18.00;99.90;;;;;;5074904;28;20021;-78
2022/07/26 05:54:26;;;;;;;9.40;2.30;;;18.10;99.90;;;;;;5054610;28;20020;-84
2022/07/26 05:56:52;;;;;;;5.35;2.08;;;17.70;99.90;;;;;;5076394;28;20024;-79
2022/07/26 05:59:17;;;;;;;4.10;1.80;;;17.40;99.90;;;;;;5075700;28;20468;-83
2022/07/26 06:01:43;;;;;;;3.72;1.65;;;17.20;99.90;;;;;;5075183;28;20019;-82
2022/07/26 06:04:09;;;;;;;6.65;2.40;;;17.00;99.90;;;;;;5078422;28;20024;-82
2022/07/26 06:06:34;;;;;;;4.72;2.35;;;16.80;99.90;;;;;;5075225;28;20031;-83
2022/07/26 06:09:00;;;;;;;6.32;2.60;;;16.70;99.90;;;;;;5074605;28;20525;-82
2022/07/26 06:11:25;;;;;;;5.05;2.50;;;16.80;99.90;;;;;;5077249;28;20051;-81
2022/07/26 06:13:51;;;;;;;3.78;2.33;;;16.70;99.90;;;;;;5079038;28;20021;-80
2022/07/26 06:16:17;;;;;;;3.90;2.35;;;16.70;99.90;;;;;;5071849;28;20034;-81
2022/07/26 06:18:42;;;;;;;3.90;2.60;;;16.70;99.90;;;;;;5079624;28;20024;-80
2022/07/26 06:21:08;;;;;;;3.63;2.33;;;16.70;99.90;;;;;;5074409;28;20089;-81
2022/07/26 06:23:33;;;;;;;6.40;3.28;;;16.60;99.90;;;;;;5074337;28;20035;-80
2022/07/26 06:25:59;;;;;;;5.30;2.70;;;16.70;99.90;;;;;;5074588;28;20241;-80
2022/07/26 06:28:25;;;;;;;6.03;2.60;;;16.80;99.90;;;;;;5072204;28;20500;-80
2022/07/26 06:30:50;;;;;;;7.45;2.67;;;16.80;99.90;;;;;;5070564;28;20024;-80
2022/07/26 06:33:17;;;;;;;5.07;2.70;;;16.70;99.90;;;;;;5072378;28;20028;-81
2022/07/26 06:35:43;;;;;;;8.32;3.13;;;16.80;99.90;;;;;;5071214;28;20033;-80
2022/07/26 06:38:08;;;;;;;8.52;2.50;;;16.80;99.90;;;;;;5070270;28;20031;-79
2022/07/26 06:40:34;;;;;;;5.55;2.25;;;16.70;99.90;;;;;;5071010;28;20468;-79
2022/07/26 06:43:02;;;;;;;8.98;2.75;;;16.80;99.90;;;;;;5073702;28;20040;-80
2022/07/26 06:45:31;;;;;;;10.10;2.60;;;16.80;99.90;;;;;;5071682;28;20103;-79
2022/07/26 06:47:58;;;;;;;6.43;2.30;;;16.80;99.90;;;;;;5070346;28;20073;-79
2022/07/26 06:50:24;;;;;;;6.30;1.98;;;16.80;99.90;;;;;;5073302;28;20487;-80
2022/07/26 06:52:49;;;;;;;5.95;2.47;;;16.80;99.90;;;;;;5055504;28;20054;-81
2022/07/26 06:55:15;;;;;;;11.07;2.58;;;16.80;99.90;;;;;;5078114;28;20075;-79
2022/07/26 06:57:41;;;;;;;7.53;2.08;;;16.90;99.90;;;;;;5073601;28;20375;-80
2022/07/26 07:00:08;;;;;;;7.53;2.05;;;16.90;99.90;;;;;;5076152;28;20063;-81
2022/07/26 07:02:34;;;;;;;5.45;1.80;;;16.90;99.90;;;;;;5076406;28;20050;-81
2022/07/26 07:05:00;;;;;;;2.70;1.45;;;16.90;99.90;;;;;;5078623;28;20032;-81
2022/07/26 07:07:25;;;;;;;5.63;1.70;;;17.00;99.90;;;;;;5083086;28;20486;-80
2022/07/26 07:09:52;;;;;;;11.73;2.10;;;17.00;99.90;;;;;;5078288;28;20024;-79
2022/07/26 07:12:19;;;;;;;10.23;2.83;;;17.00;99.90;;;;;;5076915;28;20040;-81
2022/07/26 07:14:44;;;;;;;6.78;2.25;;;17.10;99.90;;;;;;5079099;28;20032;-79
2022/07/26 07:17:10;;;;;;;7.88;2.47;;;17.10;99.90;;;;;;5091255;28;20013;-81
2022/07/26 07:19:36;;;;;;;11.43;2.20;;;17.20;99.90;;;;;;5091076;28;20020;-81
2022/07/26 07:22:03;;;;;;;8.63;1.73;;;17.30;99.90;;;;;;5083125;28;20027;-81
2022/07/26 07:24:29;;;;;;;10.27;2.58;;;17.20;99.90;;;;;;5078809;28;20037;-81
2022/07/26 07:26:55;;;;;;;4.93;2.10;;;17.30;99.90;;;;;;5078919;28;20031;-79
2022/07/26 07:29:20;;;;;;;7.22;1.73;;;17.40;99.90;;;;;;5082021;28;20032;-79
2022/07/26 07:31:47;;;;;;;7.95;2.63;;;17.40;99.90;;;;;;5086579;28;20506;-78
2022/07/26 07:34:14;;;;;;;6.72;2.03;;;17.40;99.90;;;;;;5087425;28;20088;-79
2022/07/26 07:36:40;;;;;;;8.82;2.20;;;17.40;99.90;;;;;;5092138;28;20047;-80
2022/07/26 07:39:06;;;;;;;4.00;2.20;;;17.50;99.90;;;;;;5064125;28;20036;-74
2022/07/26 07:41:33;;;;;;;7.10;2.65;;;17.40;99.90;;;;;;5077383;28;20020;-74
2022/07/26 07:43:59;;;;;;;6.60;2.00;;;17.40;99.90;;;;;;5076575;28;20029;-73
2022/07/26 07:46:26;;;;;;;9.40;2.60;;;17.40;99.90;;;;;;5083383;28;20032;-80
2022/07/26 07:48:53;;;;;;;4.85;1.50;;;17.30;99.90;;;;;;5087268;28;20031;-80
2022/07/26 07:51:19;;;;;;;5.10;1.00;;;17.20;99.90;;;;;;5101990;28;20107;-81
2022/07/26 07:53:44;;;;;;;4.53;0.82;;;17.20;99.90;;;;;;5083051;28;20017;-81
2022/07/26 07:56:10;;;;;;;6.70;1.35;;;17.00;99.90;;;;;;5080817;28;20464;-81
2022/07/26 07:58:36;;;;;;;6.18;1.17;;;16.90;99.90;;;;;;5090683;28;20043;-80
2022/07/26 08:01:01;;;;;;;6.75;2.30;;;17.00;99.90;;;;;;5082560;28;20070;-80
2022/07/26 08:03:27;;;;;;;3.42;1.10;;;17.00;99.90;;;;;;5078706;28;20472;-82
2022/07/26 08:05:55;;;;;;;2.38;1.05;;;17.20;99.90;;;;;;5097707;28;20032;-81
2022/07/26 08:08:21;;;;;;;3.22;0.70;;;17.30;99.90;;;;;;5081405;28;20047;-76
2022/07/26 08:10:47;;;;;;;2.95;0.60;;;17.40;99.90;;;;;;5075394;28;20048;-77
2022/07/26 08:13:12;;;;;;;3.58;1.00;;;17.60;99.90;;;;;;5057210;28;20036;-75
2022/07/26 08:15:38;;;;;;;3.90;1.23;;;17.70;99.90;;;;;;5073719;28;20038;-77
2022/07/26 08:18:03;;;;;;;10.18;1.30;;;17.90;99.90;;;;;;5073976;28;20008;-78
2022/07/26 08:20:29;;;;;;;1.65;0.65;;;18.00;99.90;;;;;;5074749;28;20028;-72
2022/07/26 08:22:55;;;;;;;7.55;0.90;;;18.00;99.90;;;;;;5073637;28;20032;-72
2022/07/26 08:25:20;;;;;;;4.45;1.20;;;17.90;99.90;;;;;;5074179;28;20469;-72
2022/07/26 08:27:46;;;;;;;4.15;0.90;;;17.80;99.90;;;;;;5074574;28;20020;-72
2022/07/26 08:30:14;;;;;;;4.60;0.90;;;17.80;99.90;;;;;;5073525;28;20028;-73
2022/07/26 08:32:42;;;;;;;2.08;1.00;;;17.70;99.90;;;;;;5073544;28;20082;-71
2022/07/26 08:35:10;;;;;;;5.22;0.98;;;17.60;99.90;;;;;;5073911;28;20104;-71
2022/07/26 08:37:36;;;;;;;5.05;2.38;;;17.60;99.90;;;;;;5073439;28;20081;-71
2022/07/26 08:40:02;;;;;;;3.97;1.00;;;17.60;99.90;;;;;;5073714;28;20112;-72
2022/07/26 08:42:28;;;;;;;3.47;0.95;;;17.60;99.90;;;;;;5074296;28;20032;-70
2022/07/26 08:44:54;;;;;;;4.30;1.52;;;17.60;99.90;;;;;;5078629;28;20088;-71
2022/07/26 08:47:21;;;;;;;9.93;1.33;;;17.60;99.90;;;;;;5074067;28;20032;-71
2022/07/26 08:49:48;;;;;;;7.90;1.75;;;17.60;99.90;;;;;;5078647;28;20427;-71
2022/07/26 08:52:14;;;;;;;1.88;1.08;;;17.70;99.90;;;;;;5093276;28;20024;-73
